Station Historical Data
Daily Summary for January 13, 2018 Units:  English    Metric   Both
« Previous Day
Next Day »
Daily Weekly Monthly Yearly Custom
  High: Low: Average:
Temperature: 16.6 °F 8.2 °F 12 °F
Dew Point: 13.7 °F 3.1 °F 7.1 °F
Humidity: 88% 67% 81%
Wind Speed: 16.0mph 0.0mph 4.4mph
Wind Gust: 17.0mph - -
Wind- - WNW
Pressure: 30.62 in 29.91 in -
Precipitation: 0.00 in    
Historical Graphs
 
 
Tabular Data for January 13, 2018
Time Temperature Dew Point Pressure Wind Wind Speed Wind Gust Humidity Rainfall Rate (Hourly)
00:04 16.6 °F 13.7 °F 29.97 in NNW 4.0 mph 11.0 mph 88% 0.00 in
00:09 16.5 °F 13.6 °F 29.97 in North 6.0 mph 13.0 mph 88% 0.00 in
00:14 16.4 °F 13.5 °F 29.97 in North 5.0 mph 17.0 mph 88% 0.00 in
00:24 16.2 °F 13.3 °F 29.97 in North 6.0 mph 7.0 mph 88% 0.00 in
00:29 16.1 °F 13.2 °F 29.97 in NW 4.0 mph 11.0 mph 88% 0.00 in
00:44 15.7 °F 12.8 °F 29.95 in North 4.0 mph 14.0 mph 88% 0.00 in
00:49 15.6 °F 12.7 °F 29.94 in North 6.0 mph 14.0 mph 88% 0.00 in
00:54 15.6 °F 12.7 °F 29.94 in North 6.0 mph 12.0 mph 88% 0.00 in
00:59 15.5 °F 12.6 °F 29.94 in North 5.0 mph 11.0 mph 88% 0.00 in
01:04 15.5 °F 12.6 °F 29.93 in North 5.0 mph 10.0 mph 88% 0.00 in
01:09 15.4 °F 12.5 °F 29.91 in NNW 16.0 mph 16.0 mph 88% 0.00 in
01:14 15.4 °F 12.5 °F 29.91 in NNE 7.0 mph 16.0 mph 88% 0.00 in
01:19 15.3 °F 12.4 °F 29.93 in North 6.0 mph 16.0 mph 88% 0.00 in
01:24 15.2 °F 12.3 °F 29.94 in NNE 5.0 mph 8.0 mph 88% 0.00 in
01:29 15.2 °F 12.3 °F 29.93 in North 5.0 mph 13.0 mph 88% 0.00 in
01:34 15.0 °F 12.1 °F 29.94 in North 6.0 mph 13.0 mph 88% 0.00 in
01:39 14.9 °F 12.0 °F 29.93 in North 7.0 mph 15.0 mph 88% 0.00 in
01:44 14.8 °F 11.9 °F 29.94 in North 2.0 mph 7.0 mph 88% 0.00 in
01:49 14.8 °F 11.9 °F 29.97 in NW 4.0 mph 11.0 mph 88% 0.00 in
01:54 14.8 °F 11.9 °F 29.97 in NNW 5.0 mph 11.0 mph 88% 0.00 in
01:59 14.7 °F 11.8 °F 29.98 in North 5.0 mph 11.0 mph 88% 0.00 in
02:04 14.6 °F 11.7 °F 29.97 in North 6.0 mph 13.0 mph 88% 0.00 in
02:09 14.6 °F 11.7 °F 29.96 in NNW 5.0 mph 11.0 mph 88% 0.00 in
02:14 14.5 °F 11.6 °F 29.97 in NNW 3.0 mph 9.0 mph 88% 0.00 in
02:19 14.5 °F 11.6 °F 29.99 in NNE 7.0 mph 12.0 mph 88% 0.00 in
02:24 14.5 °F 11.6 °F 29.99 in North 5.0 mph 10.0 mph 88% 0.00 in
02:29 14.4 °F 11.5 °F 30.01 in NNW 6.0 mph 11.0 mph 88% 0.00 in
02:34 14.3 °F 11.4 °F 30.01 in NNW 5.0 mph 11.0 mph 88% 0.00 in
02:39 14.2 °F 11.3 °F 30.01 in NNW 4.0 mph 11.0 mph 88% 0.00 in
02:44 14.1 °F 11.2 °F 30.00 in NNW 5.0 mph 13.0 mph 88% 0.00 in
02:49 14.0 °F 11.1 °F 30.00 in North 7.0 mph 15.0 mph 88% 0.00 in
02:54 14.0 °F 11.1 °F 30.00 in North 6.0 mph 8.0 mph 88% 0.00 in
02:59 13.9 °F 11.0 °F 30.00 in North 5.0 mph 12.0 mph 88% 0.00 in
03:04 13.8 °F 10.9 °F 30.00 in North 6.0 mph 12.0 mph 88% 0.00 in
03:09 13.6 °F 10.7 °F 29.99 in North 6.0 mph 16.0 mph 88% 0.00 in
03:14 13.5 °F 10.6 °F 30.00 in NNE 6.0 mph 11.0 mph 88% 0.00 in
03:19 13.4 °F 10.5 °F 30.00 in North 5.0 mph 8.0 mph 88% 0.00 in
03:24 13.4 °F 10.5 °F 30.00 in NNW 3.0 mph 10.0 mph 88% 0.00 in
03:29 13.3 °F 10.4 °F 30.01 in NW 3.0 mph 9.0 mph 88% 0.00 in
03:34 13.2 °F 10.3 °F 30.01 in North 13.0 mph 13.0 mph 88% 0.00 in
03:39 13.2 °F 10.3 °F 30.01 in NNW 5.0 mph 13.0 mph 88% 0.00 in
03:44 13.1 °F 10.0 °F 30.02 in North 5.0 mph 13.0 mph 87% 0.00 in
03:49 13.1 °F 10.0 °F 30.02 in North 4.0 mph 12.0 mph 87% 0.00 in
03:54 13.0 °F 10.1 °F 30.02 in North 5.0 mph 16.0 mph 88% 0.00 in
03:59 12.8 °F 9.7 °F 30.02 in North 6.0 mph 15.0 mph 87% 0.00 in
04:09 12.6 °F 9.5 °F 30.02 in North 6.0 mph 13.0 mph 87% 0.00 in
04:14 12.5 °F 9.4 °F 30.02 in NNW 6.0 mph 13.0 mph 87% 0.00 in
04:19 12.5 °F 9.4 °F 30.02 in NNW 6.0 mph 14.0 mph 87% 0.00 in
04:24 12.3 °F 9.2 °F 30.02 in NNW 7.0 mph 15.0 mph 87% 0.00 in
04:29 12.3 °F 9.2 °F 30.03 in NNW 7.0 mph 12.0 mph 87% 0.00 in
04:34 12.2 °F 9.1 °F 30.03 in WNW 12.0 mph 12.0 mph 87% 0.00 in
04:39 12.2 °F 9.1 °F 30.04 in North 10.0 mph 11.0 mph 87% 0.00 in
04:44 12.2 °F 9.1 °F 30.04 in North 3.0 mph 12.0 mph 87% 0.00 in
04:54 12.1 °F 9.0 °F 30.06 in NNW 5.0 mph 12.0 mph 87% 0.00 in
04:59 12.1 °F 9.0 °F 30.06 in NW 3.0 mph 12.0 mph 87% 0.00 in
05:04 12.1 °F 9.0 °F 30.06 in North 4.0 mph 11.0 mph 87% 0.00 in
05:09 12.0 °F 8.9 °F 30.06 in NNW 4.0 mph 12.0 mph 87% 0.00 in
05:14 12.0 °F 8.9 °F 30.07 in NW 3.0 mph 11.0 mph 87% 0.00 in
05:19 12.0 °F 8.9 °F 30.07 in NNW 5.0 mph 15.0 mph 87% 0.00 in
05:24 11.9 °F 8.8 °F 30.07 in NNW 6.0 mph 15.0 mph 87% 0.00 in
05:29 11.7 °F 8.6 °F 30.08 in NNW 7.0 mph 15.0 mph 87% 0.00 in
05:34 11.7 °F 8.6 °F 30.09 in NNW 6.0 mph 12.0 mph 87% 0.00 in
05:39 11.7 °F 8.6 °F 30.11 in NNW 3.0 mph 9.0 mph 87% 0.00 in
05:44 11.7 °F 8.6 °F 30.12 in NNW 4.0 mph 8.0 mph 87% 0.00 in
05:49 11.6 °F 8.5 °F 30.12 in NNE 5.0 mph 13.0 mph 87% 0.00 in
05:54 11.6 °F 8.5 °F 30.11 in NNW 4.0 mph 13.0 mph 87% 0.00 in
05:59 11.6 °F 8.5 °F 30.11 in NNW 5.0 mph 10.0 mph 87% 0.00 in
06:04 11.6 °F 8.5 °F 30.11 in NNW 4.0 mph 10.0 mph 87% 0.00 in
06:09 11.4 °F 8.3 °F 30.10 in NW 7.0 mph 10.0 mph 87% 0.00 in
06:14 11.4 °F 8.3 °F 30.12 in NW 4.0 mph 11.0 mph 87% 0.00 in
06:19 11.3 °F 8.2 °F 30.12 in NW 7.0 mph 7.0 mph 87% 0.00 in
06:24 11.3 °F 8.2 °F 30.12 in North 4.0 mph 11.0 mph 87% 0.00 in
06:29 11.1 °F 8.0 °F 30.12 in NNW 6.0 mph 13.0 mph 87% 0.00 in
06:34 11.1 °F 8.0 °F 30.13 in NNW 5.0 mph 13.0 mph 87% 0.00 in
06:39 11.1 °F 8.0 °F 30.14 in North 5.0 mph 11.0 mph 87% 0.00 in
06:44 11.0 °F 7.9 °F 30.14 in North 6.0 mph 12.0 mph 87% 0.00 in
06:49 11.0 °F 7.9 °F 30.14 in NNW 4.0 mph 7.0 mph 87% 0.00 in
06:54 10.9 °F 7.5 °F 30.14 in NNW 4.0 mph 10.0 mph 86% 0.00 in
06:59 10.9 °F 7.5 °F 30.15 in NNW 4.0 mph 9.0 mph 86% 0.00 in
07:04 10.8 °F 7.4 °F 30.15 in NNW 4.0 mph 9.0 mph 86% 0.00 in
07:09 10.9 °F 7.5 °F 30.16 in NNW 4.0 mph 7.0 mph 86% 0.00 in
07:14 10.9 °F 7.5 °F 30.16 in NNW 4.0 mph 12.0 mph 86% 0.00 in
07:19 10.8 °F 7.4 °F 30.16 in NW 4.0 mph 10.0 mph 86% 0.00 in
07:29 10.7 °F 7.3 °F 30.17 in NNW 9.0 mph 9.0 mph 86% 0.00 in
07:34 10.7 °F 7.3 °F 30.18 in NW 4.0 mph 9.0 mph 86% 0.00 in
07:39 10.6 °F 7.2 °F 30.18 in NNW 5.0 mph 10.0 mph 86% 0.00 in
07:44 10.5 °F 7.1 °F 30.18 in North 7.0 mph 11.0 mph 86% 0.00 in
07:49 10.4 °F 7.0 °F 30.19 in NNW 5.0 mph 11.0 mph 86% 0.00 in
07:54 10.4 °F 7.0 °F 30.19 in NNW 4.0 mph 10.0 mph 86% 0.00 in
07:59 10.4 °F 7.0 °F 30.19 in NNW 4.0 mph 10.0 mph 86% 0.00 in
08:04 10.4 °F 7.0 °F 30.20 in WNW 5.0 mph 8.0 mph 86% 0.00 in
08:09 10.4 °F 7.0 °F 30.20 in NW 5.0 mph 9.0 mph 86% 0.00 in
08:14 10.4 °F 7.0 °F 30.20 in NNW 4.0 mph 11.0 mph 86% 0.00 in
08:19 10.4 °F 7.0 °F 30.20 in NNW 3.0 mph 9.0 mph 86% 0.00 in
08:24 10.4 °F 7.0 °F 30.21 in WNW 3.0 mph 9.0 mph 86% 0.00 in
08:29 10.4 °F 7.0 °F 30.21 in NNW 1.0 mph 8.0 mph 86% 0.00 in
08:34 10.5 °F 7.1 °F 30.22 in NW 1.0 mph 6.0 mph 86% 0.00 in
08:39 10.6 °F 7.2 °F 30.22 in NW 5.0 mph 6.0 mph 86% 0.00 in
08:49 10.8 °F 7.4 °F 30.24 in NNW 4.0 mph 8.0 mph 86% 0.00 in
08:54 10.9 °F 7.5 °F 30.24 in NNW 4.0 mph 7.0 mph 86% 0.00 in
08:59 11.2 °F 8.1 °F 30.25 in NW 4.0 mph 9.0 mph 87% 0.00 in
09:04 11.2 °F 7.8 °F 30.25 in NW 5.0 mph 9.0 mph 86% 0.00 in
09:09 11.0 °F 7.6 °F 30.26 in NNW 5.0 mph 8.0 mph 86% 0.00 in
09:14 11.0 °F 7.6 °F 30.26 in NNW 5.0 mph 7.0 mph 86% 0.00 in
09:19 11.0 °F 7.6 °F 30.26 in Calm   6.0 mph 86% 0.00 in
09:24 11.2 °F 7.8 °F 30.26 in NW 3.0 mph 7.0 mph 86% 0.00 in
09:29 11.3 °F 7.9 °F 30.26 in North 5.0 mph 7.0 mph 86% 0.00 in
09:34 11.4 °F 8.0 °F 30.27 in WNW 3.0 mph 9.0 mph 86% 0.00 in
09:39 11.4 °F 8.0 °F 30.27 in NNW 4.0 mph 9.0 mph 86% 0.00 in
09:44 11.5 °F 8.1 °F 30.27 in NNW 4.0 mph 11.0 mph 86% 0.00 in
09:49 11.4 °F 8.0 °F 30.27 in NW 4.0 mph 10.0 mph 86% 0.00 in
09:54 11.2 °F 7.8 °F 30.28 in NW 1.0 mph 8.0 mph 86% 0.00 in
09:59 11.9 °F 8.3 °F 30.28 in NNW 4.0 mph 10.0 mph 85% 0.00 in
10:04 12.1 °F 8.5 °F 30.29 in NNW 4.0 mph 13.0 mph 85% 0.00 in
10:09 12.1 °F 8.2 °F 30.29 in NW 5.0 mph 13.0 mph 84% 0.00 in
10:14 12.3 °F 8.1 °F 30.30 in NW 11.0 mph 11.0 mph 83% 0.00 in
10:19 12.2 °F 7.8 °F 30.30 in NNW 4.0 mph 13.0 mph 82% 0.00 in
10:24 12.3 °F 7.9 °F 30.30 in North 6.0 mph 9.0 mph 82% 0.00 in
10:29 12.5 °F 8.0 °F 30.30 in NNW 5.0 mph 9.0 mph 82% 0.00 in
10:34 12.5 °F 8.0 °F 30.30 in NNW 5.0 mph 10.0 mph 82% 0.00 in
10:39 12.6 °F 8.1 °F 30.30 in NNW 4.0 mph 10.0 mph 82% 0.00 in
10:49 12.6 °F 8.1 °F 30.31 in NNW 4.0 mph 9.0 mph 82% 0.00 in
10:54 12.8 °F 8.1 °F 30.31 in NNW 4.0 mph 9.0 mph 81% 0.00 in
10:59 13.0 °F 7.7 °F 30.31 in NNW 5.0 mph 11.0 mph 79% 0.00 in
11:09 13.3 °F 7.7 °F 30.31 in North 5.0 mph 11.0 mph 78% 0.00 in
11:14 13.4 °F 7.8 °F 30.31 in NNE 5.0 mph 10.0 mph 78% 0.00 in
11:19 13.1 °F 7.2 °F 30.31 in NW 4.0 mph 12.0 mph 77% 0.00 in
11:24 13.3 °F 7.7 °F 30.32 in NNW 3.0 mph 9.0 mph 78% 0.00 in
11:29 13.2 °F 7.6 °F 30.32 in North 4.0 mph 8.0 mph 78% 0.00 in
11:34 13.0 °F 7.4 °F 30.32 in WNW 5.0 mph 11.0 mph 78% 0.00 in
11:39 13.0 °F 7.4 °F 30.32 in NW 5.0 mph 11.0 mph 78% 0.00 in
11:54 13.0 °F 7.4 °F 30.32 in NW 5.0 mph 10.0 mph 78% 0.00 in
11:59 13.6 °F 7.7 °F 30.33 in NW 5.0 mph 12.0 mph 77% 0.00 in
12:04 13.2 °F 7.0 °F 30.33 in NNW 5.0 mph 12.0 mph 76% 0.00 in
12:14 13.4 °F 7.5 °F 30.33 in NNW 5.0 mph 10.0 mph 77% 0.00 in
12:19 13.0 °F 7.1 °F 30.33 in NNW 5.0 mph 13.0 mph 77% 0.00 in
12:29 12.7 °F 6.6 °F 30.33 in NW 3.0 mph 9.0 mph 76% 0.00 in
12:34 12.8 °F 6.9 °F 30.33 in WNW 7.0 mph 11.0 mph 77% 0.00 in
12:39 13.6 °F 7.7 °F 30.33 in NW 3.0 mph 9.0 mph 77% 0.00 in
12:44 13.9 °F 7.7 °F 30.33 in NW 9.0 mph 16.0 mph 76% 0.00 in
12:49 14.0 °F 7.8 °F 30.33 in NW 5.0 mph 16.0 mph 76% 0.00 in
12:54 13.6 °F 7.4 °F 30.33 in NW 5.0 mph 11.0 mph 76% 0.00 in
13:04 13.1 °F 7.0 °F 30.34 in NW 5.0 mph 11.0 mph 76% 0.00 in
13:09 12.7 °F 6.3 °F 30.34 in NW 5.0 mph 11.0 mph 75% 0.00 in
13:14 12.6 °F 6.5 °F 30.34 in NNW 5.0 mph 10.0 mph 76% 0.00 in
13:19 13.0 °F 6.6 °F 30.33 in WNW 5.0 mph 12.0 mph 75% 0.00 in
13:24 14.1 °F 7.3 °F 30.33 in NW 6.0 mph 15.0 mph 74% 0.00 in
13:29 13.8 °F 6.7 °F 30.34 in WNW 6.0 mph 15.0 mph 73% 0.00 in
13:34 13.4 °F 6.4 °F 30.34 in NNW 2.0 mph 15.0 mph 73% 0.00 in
13:39 14.6 °F 7.5 °F 30.34 in NNW 6.0 mph 11.0 mph 73% 0.00 in
13:44 14.9 °F 6.9 °F 30.34 in WNW 6.0 mph 12.0 mph 70% 0.00 in
13:49 14.5 °F 6.2 °F 30.35 in NW 5.0 mph 13.0 mph 69% 0.00 in
13:54 14.2 °F 5.9 °F 30.35 in NW 6.0 mph 14.0 mph 69% 0.00 in
13:59 14.1 °F 5.8 °F 30.35 in NNW 6.0 mph 14.0 mph 69% 0.00 in
14:04 13.8 °F 5.5 °F 30.35 in NNW 6.0 mph 14.0 mph 69% 0.00 in
14:09 13.8 °F 5.5 °F 30.36 in NW 6.0 mph 14.0 mph 69% 0.00 in
14:14 14.0 °F 6.0 °F 30.36 in NW 4.0 mph 11.0 mph 70% 0.00 in
14:19 14.2 °F 5.9 °F 30.36 in North 4.0 mph 11.0 mph 69% 0.00 in
14:24 13.9 °F 5.6 °F 30.37 in NNW 7.0 mph 14.0 mph 69% 0.00 in
14:29 13.6 °F 5.0 °F 30.37 in NW 7.0 mph 14.0 mph 68% 0.00 in
14:34 13.5 °F 4.9 °F 30.37 in NW 7.0 mph 12.0 mph 68% 0.00 in
14:39 13.4 °F 4.5 °F 30.38 in NW 6.0 mph 13.0 mph 67% 0.00 in
14:44 13.5 °F 4.9 °F 30.38 in NNW 6.0 mph 13.0 mph 68% 0.00 in
14:49 13.5 °F 4.9 °F 30.38 in NW 5.0 mph 12.0 mph 68% 0.00 in
14:54 13.3 °F 4.7 °F 30.38 in NNW 5.0 mph 14.0 mph 68% 0.00 in
14:59 13.5 °F 4.9 °F 30.39 in West 7.0 mph 17.0 mph 68% 0.00 in
15:04 13.5 °F 4.9 °F 30.39 in NW 6.0 mph 17.0 mph 68% 0.00 in
15:09 13.4 °F 4.8 °F 30.40 in NW 6.0 mph 12.0 mph 68% 0.00 in
15:14 13.2 °F 4.6 °F 30.41 in NW 5.0 mph 12.0 mph 68% 0.00 in
15:19 13.3 °F 5.0 °F 30.41 in NNW 7.0 mph 10.0 mph 69% 0.00 in
15:24 13.1 °F 4.5 °F 30.41 in WNW 3.0 mph 12.0 mph 68% 0.00 in
15:29 13.1 °F 4.8 °F 30.41 in NW 6.0 mph 10.0 mph 69% 0.00 in
15:34 13.0 °F 5.4 °F 30.42 in NNW 4.0 mph 9.0 mph 71% 0.00 in
15:39 13.4 °F 5.7 °F 30.42 in NW 3.0 mph 9.0 mph 71% 0.00 in
15:44 13.4 °F 5.7 °F 30.42 in NW 4.0 mph 8.0 mph 71% 0.00 in
15:49 13.0 °F 5.0 °F 30.43 in NW 5.0 mph 10.0 mph 70% 0.00 in
15:54 12.2 °F 4.6 °F 30.43 in WNW 5.0 mph 10.0 mph 71% 0.00 in
15:59 11.9 °F 4.3 °F 30.43 in West 8.0 mph 9.0 mph 71% 0.00 in
16:04 11.8 °F 4.5 °F 30.43 in West 5.0 mph 9.0 mph 72% 0.00 in
16:09 11.9 °F 4.6 °F 30.44 in NW 4.0 mph 8.0 mph 72% 0.00 in
16:14 11.8 °F 4.8 °F 30.44 in NW 3.0 mph 8.0 mph 73% 0.00 in
16:19 11.7 °F 4.7 °F 30.44 in NW 3.0 mph 10.0 mph 73% 0.00 in
16:24 11.7 °F 4.7 °F 30.45 in NW 5.0 mph 10.0 mph 73% 0.00 in
16:29 11.8 °F 5.1 °F 30.45 in NW 4.0 mph 8.0 mph 74% 0.00 in
16:34 11.7 °F 5.0 °F 30.45 in NW 4.0 mph 9.0 mph 74% 0.00 in
16:39 11.7 °F 5.0 °F 30.45 in WNW 4.0 mph 9.0 mph 74% 0.00 in
16:44 11.7 °F 5.3 °F 30.46 in NW 3.0 mph 8.0 mph 75% 0.00 in
16:49 11.6 °F 5.2 °F 30.46 in NNW 4.0 mph 8.0 mph 75% 0.00 in
16:54 11.6 °F 5.2 °F 30.46 in NNW 3.0 mph 9.0 mph 75% 0.00 in
16:59 11.5 °F 5.1 °F 30.46 in NNW 4.0 mph 9.0 mph 75% 0.00 in
17:04 11.5 °F 5.1 °F 30.47 in NNW 3.0 mph 8.0 mph 75% 0.00 in
17:09 11.6 °F 5.2 °F 30.47 in NW 5.0 mph 10.0 mph 75% 0.00 in
17:14 11.6 °F 5.2 °F 30.47 in West 7.0 mph 9.0 mph 75% 0.00 in
17:19 11.6 °F 5.2 °F 30.47 in WNW 6.0 mph 7.0 mph 75% 0.00 in
17:24 11.7 °F 5.6 °F 30.48 in NW 4.0 mph 7.0 mph 76% 0.00 in
17:29 11.7 °F 5.3 °F 30.48 in WNW 3.0 mph 9.0 mph 75% 0.00 in
17:34 11.8 °F 5.4 °F 30.48 in West 10.0 mph 10.0 mph 75% 0.00 in
17:39 11.7 °F 5.3 °F 30.48 in NNW 2.0 mph 11.0 mph 75% 0.00 in
17:44 11.6 °F 5.2 °F 30.48 in WNW 5.0 mph 6.0 mph 75% 0.00 in
17:49 11.4 °F 4.7 °F 30.49 in NW 8.0 mph 8.0 mph 74% 0.00 in
17:54 11.4 °F 4.7 °F 30.49 in WNW 3.0 mph 9.0 mph 74% 0.00 in
17:59 11.4 °F 4.7 °F 30.49 in WNW 3.0 mph 9.0 mph 74% 0.00 in
18:14 11.4 °F 4.7 °F 30.50 in WNW 4.0 mph 11.0 mph 74% 0.00 in
18:19 11.4 °F 4.7 °F 30.50 in WNW 4.0 mph 11.0 mph 74% 0.00 in
18:24 11.4 °F 5.0 °F 30.50 in WNW 7.0 mph 9.0 mph 75% 0.00 in
18:29 11.4 °F 5.0 °F 30.51 in NW 3.0 mph 9.0 mph 75% 0.00 in
18:34 11.4 °F 5.0 °F 30.51 in NW 4.0 mph 9.0 mph 75% 0.00 in
18:39 11.4 °F 5.0 °F 30.51 in NW 1.0 mph 8.0 mph 75% 0.00 in
18:44 11.5 °F 5.4 °F 30.51 in WNW 6.0 mph 6.0 mph 76% 0.00 in
18:49 11.5 °F 5.1 °F 30.51 in West 6.0 mph 7.0 mph 75% 0.00 in
18:54 11.4 °F 5.3 °F 30.51 in NW 1.0 mph 9.0 mph 76% 0.00 in
18:59 11.4 °F 5.3 °F 30.51 in WNW 2.0 mph 8.0 mph 76% 0.00 in
19:04 11.4 °F 5.3 °F 30.52 in WNW 4.0 mph 8.0 mph 76% 0.00 in
19:09 11.4 °F 5.3 °F 30.52 in WNW 4.0 mph 9.0 mph 76% 0.00 in
19:14 11.4 °F 5.3 °F 30.52 in WNW 5.0 mph 12.0 mph 76% 0.00 in
19:19 11.4 °F 5.0 °F 30.53 in WNW 5.0 mph 12.0 mph 75% 0.00 in
19:24 11.4 °F 5.0 °F 30.53 in WNW 4.0 mph 9.0 mph 75% 0.00 in
19:29 11.3 °F 4.6 °F 30.53 in NW 6.0 mph 11.0 mph 74% 0.00 in
19:34 11.1 °F 4.4 °F 30.53 in West 2.0 mph 11.0 mph 74% 0.00 in
19:39 10.9 °F 4.2 °F 30.54 in WNW 5.0 mph 11.0 mph 74% 0.00 in
19:44 10.8 °F 4.1 °F 30.54 in WNW 5.0 mph 10.0 mph 74% 0.00 in
19:49 10.8 °F 4.4 °F 30.54 in West 4.0 mph 7.0 mph 75% 0.00 in
19:54 10.8 °F 4.4 °F 30.55 in WNW 5.0 mph 8.0 mph 75% 0.00 in
19:59 10.8 °F 4.4 °F 30.55 in WNW 2.0 mph 10.0 mph 75% 0.00 in
20:04 10.8 °F 4.4 °F 30.55 in West 7.0 mph 10.0 mph 75% 0.00 in
20:09 10.6 °F 4.5 °F 30.55 in West 3.0 mph 8.0 mph 76% 0.00 in
20:14 10.6 °F 4.5 °F 30.55 in WNW 4.0 mph 8.0 mph 76% 0.00 in
20:19 10.6 °F 4.8 °F 30.56 in WNW 2.0 mph 7.0 mph 77% 0.00 in
20:24 10.5 °F 4.7 °F 30.56 in WNW 4.0 mph 7.0 mph 77% 0.00 in
20:29 10.3 °F 4.8 °F 30.56 in WNW 4.0 mph 8.0 mph 78% 0.00 in
20:34 10.0 °F 4.8 °F 30.57 in WNW 5.0 mph 8.0 mph 79% 0.00 in
20:39 9.8 °F 4.9 °F 30.56 in West 4.0 mph 7.0 mph 80% 0.00 in
20:44 9.7 °F 4.8 °F 30.57 in West 4.0 mph 7.0 mph 80% 0.00 in
20:49 9.5 °F 4.6 °F 30.57 in West 3.0 mph 7.0 mph 80% 0.00 in
20:59 9.2 °F 4.6 °F 30.58 in NW 3.0 mph 6.0 mph 81% 0.00 in
21:04 9.0 °F 4.4 °F 30.58 in West 3.0 mph 7.0 mph 81% 0.00 in
21:09 8.8 °F 4.2 °F 30.57 in West 2.0 mph 5.0 mph 81% 0.00 in
21:14 8.6 °F 4.2 °F 30.58 in West 1.0 mph 3.0 mph 82% 0.00 in
21:19 8.5 °F 4.1 °F 30.58 in Calm   3.0 mph 82% 0.00 in
21:24 8.4 °F 4.0 °F 30.58 in West 1.0 mph 3.0 mph 82% 0.00 in
21:29 8.4 °F 4.0 °F 30.58 in West 1.0 mph 3.0 mph 82% 0.00 in
21:34 8.2 °F 3.8 °F 30.58 in Calm   2.0 mph 82% 0.00 in
21:39 8.3 °F 3.9 °F 30.59 in Calm     82% 0.00 in
21:44 8.2 °F 3.8 °F 30.59 in Calm     82% 0.00 in
21:49 8.2 °F 4.1 °F 30.59 in Calm     83% 0.00 in
21:59 8.5 °F 4.4 °F 30.59 in West 1.0 mph 3.0 mph 83% 0.00 in
22:04 8.7 °F 4.6 °F 30.59 in WNW 2.0 mph 7.0 mph 83% 0.00 in
22:09 8.8 °F 4.4 °F 30.60 in WNW 3.0 mph 8.0 mph 82% 0.00 in
22:14 8.8 °F 4.2 °F 30.60 in NW 3.0 mph 8.0 mph 81% 0.00 in
22:19 8.9 °F 4.3 °F 30.60 in NNW 3.0 mph 6.0 mph 81% 0.00 in
22:24 8.9 °F 4.0 °F 30.60 in West 2.0 mph 6.0 mph 80% 0.00 in
22:29 8.9 °F 3.7 °F 30.60 in WNW 1.0 mph 6.0 mph 79% 0.00 in
22:34 8.8 °F 3.3 °F 30.61 in NW 3.0 mph 7.0 mph 78% 0.00 in
22:39 8.8 °F 3.3 °F 30.61 in NW 3.0 mph 7.0 mph 78% 0.00 in
22:44 8.8 °F 3.3 °F 30.60 in NW 2.0 mph 5.0 mph 78% 0.00 in
22:49 8.9 °F 3.2 °F 30.60 in NW 5.0 mph 5.0 mph 77% 0.00 in
22:54 8.8 °F 3.1 °F 30.60 in NW 2.0 mph 5.0 mph 77% 0.00 in
22:59 8.8 °F 3.1 °F 30.61 in Calm   5.0 mph 77% 0.00 in
23:04 8.9 °F 3.2 °F 30.61 in Calm     77% 0.00 in
23:14 9.0 °F 3.5 °F 30.61 in NW 1.0 mph 5.0 mph 78% 0.00 in
23:19 9.2 °F 3.7 °F 30.61 in NW 1.0 mph 4.0 mph 78% 0.00 in
23:24 9.2 °F 3.7 °F 30.61 in NW 3.0 mph 4.0 mph 78% 0.00 in
23:29 9.2 °F 3.7 °F 30.61 in NW 2.0 mph 3.0 mph 78% 0.00 in
23:34 9.1 °F 3.6 °F 30.62 in Calm   2.0 mph 78% 0.00 in
23:39 8.9 °F 3.4 °F 30.61 in NW 1.0 mph 3.0 mph 78% 0.00 in
23:44 8.8 °F 3.6 °F 30.61 in Calm   3.0 mph 79% 0.00 in
23:49 8.7 °F 3.5 °F 30.61 in Calm   2.0 mph 79% 0.00 in
23:54 8.5 °F 3.3 °F 30.62 in West 2.0 mph 4.0 mph 79% 0.00 in
23:59 8.5 °F 3.6 °F 30.62 in West 2.0 mph 3.0 mph 80% 0.00 in
Buffalo, New York, USA
Compliments of Weather Underground - 2.25 mb